Terminal Aerodrome Forecast
Issued by NWS

Home | Current Version | Previous Version | Text Only | Print | Product List | Glossary On
Versions: 1 2 3 4 5 6 7 8 9 10 11 12 13 14 15
184
FTUS42 KTAE 222335
TAFDHN
TAF
KDHN 222335Z 2300/2324 13009KT P6SM BKN050 BKN150
     FM230300 12009KT 6SM -TSRA BKN025CB OVC070
      TEMPO 2310/2314 3SM TSRA BKN015CB OVC050
     FM231400 23011KT 6SM -TSRA BKN025CB OVC070
     FM231600 29011KT P6SM SCT030=

USA.gov is the U.S. government's official web portal to all federal, state and local government web resources and services.